Time;durP1;ratioP1;P1;durP2;ratioP2;P2;SDS_P1;SDS_P2;PMS_P1;PMS_P2;Temp;Humidity;BMP_temperature;BMP_pressure;BME280_temperature;BME280_humidity;BME280_pressure;Samples;Min_cycle;Max_cycle;Signal;HPM_P1;HPM_P2
2022/07/30 00:02:17;;;;;;;6.13;4.70;;;;;;;;;;5094434;28;20236;-85
2022/07/30 00:04:46;;;;;;;7.47;5.10;;;;;;;;;;5095006;28;20683;-85
2022/07/30 00:07:13;;;;;;;6.05;5.15;;;;;;;;;;5094209;28;20228;-86
2022/07/30 00:09:40;;;;;;;5.40;4.90;;;;;;;;;;5105193;28;20205;-86
2022/07/30 00:12:07;;;;;;;5.67;5.10;;;;;;;;;;5095811;28;20691;-85
2022/07/30 00:14:35;;;;;;;6.93;4.53;;;;;;;;;;5095123;28;20683;-86
2022/07/30 00:17:02;;;;;;;5.80;5.20;;;;;;;;;;5094140;28;20231;-86
2022/07/30 00:19:29;;;;;;;6.00;4.80;;;;;;;;;;5094639;28;20243;-86
2022/07/30 00:21:58;;;;;;;5.83;4.70;;;;;;;;;;5093184;28;20212;-87
2022/07/30 00:24:25;;;;;;;4.87;4.47;;;;;;;;;;5094912;28;20211;-86
2022/07/30 00:26:52;;;;;;;6.47;4.70;;;;;;;;;;5094463;28;20225;-86
2022/07/30 00:29:19;;;;;;;6.57;4.50;;;;;;;;;;5093532;28;20239;-86
2022/07/30 00:31:46;;;;;;;5.22;4.72;;;;;;;;;;5094394;28;20204;-85
2022/07/30 00:34:13;;;;;;;4.90;4.50;;;;;;;;;;5093884;28;20231;-86
2022/07/30 00:36:40;;;;;;;6.10;4.47;;;;;;;;;;5094098;28;20231;-85
2022/07/30 00:39:08;;;;;;;5.10;4.60;;;;;;;;;;5093611;28;20239;-86
2022/07/30 00:41:36;;;;;;;6.27;4.87;;;;;;;;;;5094365;28;20207;-85
2022/07/30 00:44:04;;;;;;;6.37;4.80;;;;;;;;;;5093645;28;20286;-85
2022/07/30 00:46:31;;;;;;;4.80;4.40;;;;;;;;;;5094191;28;20224;-87
2022/07/30 00:48:58;;;;;;;5.10;4.67;;;;;;;;;;5098586;28;20229;-86
2022/07/30 00:51:25;;;;;;;4.97;4.47;;;;;;;;;;5108768;28;20204;-86
2022/07/30 00:53:52;;;;;;;5.20;4.80;;;;;;;;;;5098845;28;20315;-86
2022/07/30 00:56:21;;;;;;;5.87;4.60;;;;;;;;;;5097272;28;20224;-87
2022/07/30 00:58:48;;;;;;;5.03;4.53;;;;;;;;;;5102266;28;20579;-85
2022/07/30 01:01:15;;;;;;;6.07;4.70;;;;;;;;;;5085765;28;20657;-86
2022/07/30 01:03:42;;;;;;;6.27;5.00;;;;;;;;;;5091482;28;20243;-86
2022/07/30 01:06:09;;;;;;;4.97;4.57;;;;;;;;;;5095258;28;20245;-86
2022/07/30 01:08:36;;;;;;;6.13;5.07;;;;;;;;;;5073120;28;20236;-86
2022/07/30 01:11:03;;;;;;;5.20;4.80;;;;;;;;;;5073137;28;20209;-86
2022/07/30 01:13:31;;;;;;;6.67;5.10;;;;;;;;;;5072936;28;20233;-86
2022/07/30 01:15:59;;;;;;;5.13;4.63;;;;;;;;;;5089086;28;20201;-86
2022/07/30 01:19:47;;;;;;;5.10;4.60;;;;;;;;;;5093088;28;20229;-86
2022/07/30 01:21:15;;;;;;;5.20;4.53;;;;;;;;;;5093070;28;20214;-85
2022/07/30 01:23:44;;;;;;;5.30;4.80;;;;;;;;;;5093134;28;20696;-86
2022/07/30 01:26:15;;;;;;;6.00;4.77;;;;;;;;;;5093771;28;20233;-85
2022/07/30 01:28:43;;;;;;;5.13;4.73;;;;;;;;;;5092877;28;20248;-85
2022/07/30 01:31:11;;;;;;;6.47;4.90;;;;;;;;;;5093312;28;20196;-86
2022/07/30 01:33:41;;;;;;;4.73;4.33;;;;;;;;;;5092886;28;20743;-86
2022/07/30 01:36:08;;;;;;;4.80;4.40;;;;;;;;;;5093483;28;20235;-86
2022/07/30 01:38:37;;;;;;;5.10;4.60;;;;;;;;;;5092838;28;20264;-86
2022/07/30 01:41:06;;;;;;;5.97;4.60;;;;;;;;;;5092997;28;20223;-86
2022/07/30 01:43:35;;;;;;;4.90;4.50;;;;;;;;;;5092651;28;20243;-86
2022/07/30 01:46:02;;;;;;;5.03;4.63;;;;;;;;;;5093158;28;20204;-86
2022/07/30 01:48:30;;;;;;;6.27;5.57;;;;;;;;;;5092612;28;20240;-86
2022/07/30 01:50:59;;;;;;;5.97;4.53;;;;;;;;;;5092978;28;20207;-86
2022/07/30 01:53:27;;;;;;;5.10;4.70;;;;;;;;;;5092785;28;20614;-85
2022/07/30 01:55:55;;;;;;;5.60;5.10;;;;;;;;;;5093327;28;20208;-84
2022/07/30 01:58:24;;;;;;;5.50;5.00;;;;;;;;;;5092996;28;20600;-86
2022/07/30 02:00:52;;;;;;;7.90;5.17;;;;;;;;;;5092717;28;20223;-86
2022/07/30 02:03:19;;;;;;;5.77;5.27;;;;;;;;;;5092202;28;20243;-85
2022/07/30 02:05:50;;;;;;;5.47;4.97;;;;;;;;;;5092858;28;20200;-85
2022/07/30 02:08:22;;;;;;;5.53;5.03;;;;;;;;;;5092674;28;20235;-86
2022/07/30 02:10:50;;;;;;;5.40;4.90;;;;;;;;;;5092938;28;20185;-86
2022/07/30 02:13:20;;;;;;;5.57;5.07;;;;;;;;;;5092481;28;20747;-85
2022/07/30 02:15:50;;;;;;;5.50;5.00;;;;;;;;;;5092827;28;20629;-85
2022/07/30 02:18:20;;;;;;;4.87;4.47;;;;;;;;;;5092490;28;20233;-86
2022/07/30 02:20:53;;;;;;;7.03;5.10;;;;;;;;;;5093090;28;20209;-85
2022/07/30 02:23:20;;;;;;;5.37;4.80;;;;;;;;;;5092710;28;20263;-84
2022/07/30 02:25:49;;;;;;;5.57;5.07;;;;;;;;;;5092916;28;20216;-85
2022/07/30 02:28:17;;;;;;;6.53;5.03;;;;;;;;;;5092391;28;20259;-86
2022/07/30 02:30:46;;;;;;;4.97;4.50;;;;;;;;;;5092795;28;20208;-86
2022/07/30 02:33:15;;;;;;;5.50;4.90;;;;;;;;;;5092290;28;20228;-85
2022/07/30 02:35:43;;;;;;;5.33;4.83;;;;;;;;;;5093197;28;20201;-85
2022/07/30 02:38:11;;;;;;;5.30;4.90;;;;;;;;;;5092193;28;20232;-84
2022/07/30 02:40:40;;;;;;;5.73;5.10;;;;;;;;;;5101870;28;20236;-86
2022/07/30 02:43:07;;;;;;;6.60;5.03;;;;;;;;;;5095362;28;20240;-84
2022/07/30 02:45:35;;;;;;;5.50;5.00;;;;;;;;;;5095236;28;20209;-86
2022/07/30 02:48:05;;;;;;;6.03;5.43;;;;;;;;;;5095947;28;20367;-85
2022/07/30 02:50:32;;;;;;;5.30;4.80;;;;;;;;;;5096966;28;20227;-85
2022/07/30 02:53:01;;;;;;;5.43;4.97;;;;;;;;;;5095870;28;20229;-85
2022/07/30 02:55:30;;;;;;;7.27;5.07;;;;;;;;;;5096591;28;20211;-85
2022/07/30 02:57:58;;;;;;;6.17;5.50;;;;;;;;;;5095857;28;20240;-85
2022/07/30 03:00:26;;;;;;;5.50;5.00;;;;;;;;;;5096052;28;20224;-85
2022/07/30 03:02:53;;;;;;;5.67;5.07;;;;;;;;;;5095437;28;20232;-85
2022/07/30 03:05:20;;;;;;;5.47;4.97;;;;;;;;;;5096059;28;20216;-85
2022/07/30 03:07:48;;;;;;;5.37;4.87;;;;;;;;;;5094966;28;20720;-85
2022/07/30 03:10:17;;;;;;;5.77;4.93;;;;;;;;;;5095480;28;20193;-85
2022/07/30 03:12:46;;;;;;;5.60;5.10;;;;;;;;;;5095142;28;20232;-85
2022/07/30 03:15:13;;;;;;;5.57;5.07;;;;;;;;;;5095754;28;20305;-85
2022/07/30 03:17:43;;;;;;;5.27;4.73;;;;;;;;;;5095394;28;20232;-85
2022/07/30 03:20:12;;;;;;;5.53;5.00;;;;;;;;;;5095925;28;20221;-84
2022/07/30 03:22:41;;;;;;;5.73;5.13;;;;;;;;;;5095381;28;20286;-85
2022/07/30 03:25:11;;;;;;;5.73;5.23;;;;;;;;;;5106779;28;20207;-84
2022/07/30 03:27:40;;;;;;;6.23;5.63;;;;;;;;;;5096804;28;20313;-85
2022/07/30 03:30:08;;;;;;;5.77;5.13;;;;;;;;;;5095875;28;20203;-85
2022/07/30 03:32:35;;;;;;;5.73;5.03;;;;;;;;;;5095338;28;20236;-85
2022/07/30 03:35:03;;;;;;;6.00;5.40;;;;;;;;;;5095932;28;20405;-85
2022/07/30 03:37:31;;;;;;;6.23;5.63;;;;;;;;;;5095462;28;20599;-86
2022/07/30 03:39:58;;;;;;;5.37;4.93;;;;;;;;;;5095346;28;20232;-85
2022/07/30 03:42:26;;;;;;;5.70;5.20;;;;;;;;;;5094752;28;20228;-85
2022/07/30 03:44:54;;;;;;;5.07;4.67;;;;;;;;;;5095798;28;20211;-85
2022/07/30 03:47:22;;;;;;;5.60;5.10;;;;;;;;;;5094855;28;20235;-85
2022/07/30 03:49:49;;;;;;;6.10;5.50;;;;;;;;;;5095332;28;20204;-85
2022/07/30 03:52:17;;;;;;;5.97;5.40;;;;;;;;;;5094818;28;20244;-84
2022/07/30 03:54:44;;;;;;;5.73;5.23;;;;;;;;;;5095267;28;20204;-85
2022/07/30 03:57:11;;;;;;;5.33;4.87;;;;;;;;;;5093636;28;20217;-84
2022/07/30 03:59:39;;;;;;;6.60;5.30;;;;;;;;;;5100090;28;20200;-86
2022/07/30 04:02:07;;;;;;;5.67;5.03;;;;;;;;;;5101122;28;20641;-86
2022/07/30 04:04:35;;;;;;;4.70;4.23;;;;;;;;;;5095250;28;20691;-85
2022/07/30 04:07:02;;;;;;;5.37;4.97;;;;;;;;;;5109454;22;20240;-84
2022/07/30 04:09:29;;;;;;;6.53;4.83;;;;;;;;;;5064534;28;20200;-84
2022/07/30 04:11:56;;;;;;;5.23;4.50;;;;;;;;;;5072454;28;20208;-85
2022/07/30 04:14:23;;;;;;;4.40;4.10;;;;;;;;;;5073255;28;20542;-84
2022/07/30 04:16:52;;;;;;;5.80;4.47;;;;;;;;;;5073420;28;20221;-84
2022/07/30 04:19:23;;;;;;;5.30;4.80;;;;;;;;;;5072931;28;20233;-84
2022/07/30 04:21:51;;;;;;;5.50;5.00;;;;;;;;;;5072716;28;20221;-84
2022/07/30 04:24:19;;;;;;;5.23;4.73;;;;;;;;;;5072643;28;20236;-84
2022/07/30 04:26:46;;;;;;;6.40;4.70;;;;;;;;;;5063604;28;20543;-84
2022/07/30 04:29:14;;;;;;;4.50;4.20;;;;;;;;;;5052554;28;20248;-84
2022/07/30 04:31:41;;;;;;;5.90;4.50;;;;;;;;;;5052858;28;20205;-84
2022/07/30 04:34:08;;;;;;;4.87;4.37;;;;;;;;;;5052772;28;20233;-84
2022/07/30 04:36:37;;;;;;;5.20;4.80;;;;;;;;;;5053279;28;20230;-84
2022/07/30 04:39:04;;;;;;;4.83;4.43;;;;;;;;;;5052651;28;20241;-84
2022/07/30 04:41:31;;;;;;;5.50;4.83;;;;;;;;;;5053099;28;20261;-84
2022/07/30 04:43:58;;;;;;;5.57;5.07;;;;;;;;;;5052436;28;20698;-85
2022/07/30 04:46:25;;;;;;;5.10;4.70;;;;;;;;;;5052835;28;20210;-84
2022/07/30 04:48:52;;;;;;;4.97;4.57;;;;;;;;;;5052649;28;20229;-84
2022/07/30 04:51:22;;;;;;;5.57;5.07;;;;;;;;;;5052737;28;20213;-84
2022/07/30 04:53:51;;;;;;;5.83;5.30;;;;;;;;;;5052049;28;20241;-84
2022/07/30 04:56:19;;;;;;;6.03;5.43;;;;;;;;;;5052736;28;20210;-84
2022/07/30 04:58:46;;;;;;;6.17;5.57;;;;;;;;;;5052273;28;20656;-84
2022/07/30 05:01:17;;;;;;;5.97;5.47;;;;;;;;;;5052228;28;20850;-84
2022/07/30 05:03:44;;;;;;;6.17;5.60;;;;;;;;;;5051944;28;20257;-84
2022/07/30 05:06:12;;;;;;;6.60;5.90;;;;;;;;;;5051753;28;20210;-84
2022/07/30 05:08:39;;;;;;;6.00;5.43;;;;;;;;;;5051530;28;20233;-84
2022/07/30 05:11:11;;;;;;;6.87;6.17;;;;;;;;;;5032516;28;20214;-84
2022/07/30 05:13:38;;;;;;;7.60;6.80;;;;;;;;;;5032262;28;20237;-84
2022/07/30 05:16:05;;;;;;;7.47;6.43;;;;;;;;;;5032969;28;20206;-84
2022/07/30 05:18:32;;;;;;;7.80;7.00;;;;;;;;;;5036713;28;20278;-84
2022/07/30 05:20:59;;;;;;;7.70;6.93;;;;;;;;;;5063161;28;20260;-84
2022/07/30 05:23:26;;;;;;;8.73;7.50;;;;;;;;;;5074056;28;20222;-87
2022/07/30 05:25:53;;;;;;;9.27;8.37;;;;;;;;;;5068303;28;20209;-87
2022/07/30 05:28:22;;;;;;;8.83;8.03;;;;;;;;;;5052579;28;20236;-86
2022/07/30 05:30:49;;;;;;;12.37;8.73;;;;;;;;;;5053483;28;20201;-86
2022/07/30 05:33:16;;;;;;;9.10;8.20;;;;;;;;;;5052717;28;20226;-86
2022/07/30 05:35:43;;;;;;;10.30;9.20;;;;;;;;;;5053129;28;20205;-86
2022/07/30 05:38:10;;;;;;;13.40;9.50;;;;;;;;;;5052359;28;20242;-86
2022/07/30 05:40:37;;;;;;;13.40;11.33;;;;;;;;;;5052231;28;20225;-86
2022/07/30 05:43:04;;;;;;;17.00;12.30;;;;;;;;;;5052490;28;20312;-86
2022/07/30 05:45:33;;;;;;;12.40;11.10;;;;;;;;;;5067829;28;20612;-86
2022/07/30 05:48:00;;;;;;;10.70;9.70;;;;;;;;;;5055190;28;20246;-86
2022/07/30 05:50:27;;;;;;;11.57;10.37;;;;;;;;;;5054304;28;20212;-86
2022/07/30 05:52:54;;;;;;;11.93;10.73;;;;;;;;;;5052531;28;20225;-86
2022/07/30 05:55:21;;;;;;;13.03;11.67;;;;;;;;;;5053222;28;20772;-86
2022/07/30 05:57:48;;;;;;;13.37;11.80;;;;;;;;;;5052061;28;20241;-86
2022/07/30 06:00:16;;;;;;;15.70;11.33;;;;;;;;;;5052374;28;20198;-86
2022/07/30 06:02:45;;;;;;;13.00;11.63;;;;;;;;;;5051961;28;20660;-85
2022/07/30 06:05:12;;;;;;;12.13;10.77;;;;;;;;;;5051640;28;20225;-84
2022/07/30 06:07:39;;;;;;;13.57;10.90;;;;;;;;;;5051684;28;20230;-84
2022/07/30 06:10:06;;;;;;;12.00;10.90;;;;;;;;;;5051977;28;20210;-84
2022/07/30 06:12:34;;;;;;;11.47;10.27;;;;;;;;;;5051523;28;20232;-85
2022/07/30 06:15:01;;;;;;;15.23;12.20;;;;;;;;;;5051697;28;20203;-84
2022/07/30 06:17:28;;;;;;;13.17;11.27;;;;;;;;;;5051131;28;20237;-84
2022/07/30 06:19:59;;;;;;;11.63;10.53;;;;;;;;;;5052856;28;20212;-84
2022/07/30 06:22:26;;;;;;;11.67;10.57;;;;;;;;;;5056014;28;20322;-84
2022/07/30 06:24:53;;;;;;;14.05;11.63;;;;;;;;;;5047645;28;20213;-85
2022/07/30 06:27:20;;;;;;;11.18;10.00;;;;;;;;;;5034788;28;20617;-84
2022/07/30 06:29:47;;;;;;;10.57;9.50;;;;;;;;;;5035471;28;20305;-84
2022/07/30 06:32:15;;;;;;;11.52;10.32;;;;;;;;;;5034597;28;20694;-85
2022/07/30 06:34:42;;;;;;;10.23;9.27;;;;;;;;;;5036015;28;20298;-84
2022/07/30 06:37:10;;;;;;;10.38;9.27;;;;;;;;;;5037669;28;20226;-84
2022/07/30 06:39:40;;;;;;;13.60;8.63;;;;;;;;;;5036081;28;20667;-84
2022/07/30 06:42:09;;;;;;;9.23;8.30;;;;;;;;;;5035159;28;20215;-84
2022/07/30 06:44:37;;;;;;;9.07;7.13;;;;;;;;;;5035740;28;20209;-84
2022/07/30 06:47:04;;;;;;;7.50;6.68;;;;;;;;;;5034805;28;20222;-83
2022/07/30 06:49:32;;;;;;;10.45;6.75;;;;;;;;;;5036765;28;20206;-83
2022/07/30 06:52:00;;;;;;;6.20;5.60;;;;;;;;;;5035969;28;20198;-83
2022/07/30 06:54:29;;;;;;;6.95;6.22;;;;;;;;;;5036196;28;20337;-83
2022/07/30 06:56:56;;;;;;;8.68;6.00;;;;;;;;;;5035105;28;20222;-84
2022/07/30 06:59:23;;;;;;;6.43;5.63;;;;;;;;;;5035166;28;20210;-84
2022/07/30 07:01:52;;;;;;;6.82;5.25;;;;;;;;;;5035145;28;20226;-84
2022/07/30 07:04:19;;;;;;;5.55;5.05;;;;;;;;;;5035349;28;20215;-84
2022/07/30 07:06:46;;;;;;;8.52;5.13;;;;;;;;;;5041809;28;20713;-83
2022/07/30 07:09:13;;;;;;;7.90;5.28;;;;;;;;;;5055124;28;20234;-84
2022/07/30 07:11:42;;;;;;;6.32;4.72;;;;;;;;;;5055806;28;20202;-83
2022/07/30 07:14:09;;;;;;;7.50;5.25;;;;;;;;;;5054596;28;20245;-84
2022/07/30 07:16:36;;;;;;;9.35;4.40;;;;;;;;;;5055804;28;20222;-84
2022/07/30 07:19:03;;;;;;;5.20;4.57;;;;;;;;;;5052966;28;20237;-84
2022/07/30 07:21:30;;;;;;;6.10;4.47;;;;;;;;;;5043354;28;20694;-85
2022/07/30 07:23:59;;;;;;;6.13;5.10;;;;;;;;;;5035836;28;20238;-85
2022/07/30 07:26:26;;;;;;;6.53;4.63;;;;;;;;;;5035578;28;20260;-85
2022/07/30 07:28:55;;;;;;;8.65;4.97;;;;;;;;;;5034664;28;20736;-85
2022/07/30 07:31:22;;;;;;;7.05;4.03;;;;;;;;;;5035746;28;20207;-84
2022/07/30 07:33:50;;;;;;;5.85;4.72;;;;;;;;;;5034119;28;20234;-86
2022/07/30 07:36:17;;;;;;;6.80;4.93;;;;;;;;;;5035049;28;20214;-85
2022/07/30 07:38:44;;;;;;;7.40;4.53;;;;;;;;;;5034414;28;20239;-85
2022/07/30 07:41:12;;;;;;;11.15;4.53;;;;;;;;;;5035455;28;20777;-82
2022/07/30 07:43:40;;;;;;;6.65;4.15;;;;;;;;;;5034641;28;20602;-83
2022/07/30 07:46:08;;;;;;;7.13;4.72;;;;;;;;;;5035148;28;20210;-83
2022/07/30 07:48:36;;;;;;;6.70;4.78;;;;;;;;;;5035156;28;20314;-83
2022/07/30 07:51:03;;;;;;;7.03;4.85;;;;;;;;;;5035822;28;20207;-84
2022/07/30 07:53:30;;;;;;;5.88;5.00;;;;;;;;;;5035688;28;20614;-83
2022/07/30 07:55:58;;;;;;;9.13;4.95;;;;;;;;;;5035723;28;20206;-83
2022/07/30 07:58:25;;;;;;;8.23;4.65;;;;;;;;;;5035828;28;20266;-86
2022/07/30 08:00:52;;;;;;;7.55;4.60;;;;;;;;;;5035638;28;20213;-84
2022/07/30 08:03:21;;;;;;;6.88;4.47;;;;;;;;;;5035247;28;20230;-84
2022/07/30 08:05:48;;;;;;;6.70;4.07;;;;;;;;;;5035584;28;20202;-84
2022/07/30 08:08:15;;;;;;;7.40;4.00;;;;;;;;;;5036625;28;20243;-84
2022/07/30 08:10:42;;;;;;;5.50;4.10;;;;;;;;;;5034331;28;20638;-84
2022/07/30 08:13:09;;;;;;;9.73;4.57;;;;;;;;;;5030164;28;20238;-85
2022/07/30 08:15:36;;;;;;;6.10;4.28;;;;;;;;;;5049823;28;20198;-83
2022/07/30 08:18:03;;;;;;;5.30;4.45;;;;;;;;;;5046177;28;20716;-85
2022/07/30 08:20:32;;;;;;;9.27;4.50;;;;;;;;;;5054007;28;20198;-83
2022/07/30 08:22:59;;;;;;;4.20;3.80;;;;;;;;;;5072887;28;20241;-84
2022/07/30 08:25:27;;;;;;;6.50;3.97;;;;;;;;;;5074652;28;20202;-82
2022/07/30 08:27:54;;;;;;;6.15;4.57;;;;;;;;;;5066984;28;20237;-85
2022/07/30 08:30:22;;;;;;;8.35;4.30;;;;;;;;;;5073636;28;20215;-86
2022/07/30 08:32:49;;;;;;;7.05;4.30;;;;;;;;;;5071918;28;20237;-86
2022/07/30 08:35:16;;;;;;;8.10;4.72;;;;;;;;;;5053156;28;20213;-85
2022/07/30 08:37:45;;;;;;;8.35;4.35;;;;;;;;;;5053414;28;20233;-85
2022/07/30 08:40:12;;;;;;;7.40;5.60;;;;;;;;;;5053796;28;20210;-87
2022/07/30 08:42:39;;;;;;;13.57;5.07;;;;;;;;;;5042214;28;20259;-86
2022/07/30 08:45:07;;;;;;;5.10;4.50;;;;;;;;;;5033168;28;20235;-85
2022/07/30 08:47:35;;;;;;;5.53;4.32;;;;;;;;;;5032512;28;20254;-85
2022/07/30 08:50:04;;;;;;;5.53;4.43;;;;;;;;;;5032345;28;20210;-85
2022/07/30 08:52:32;;;;;;;5.55;4.13;;;;;;;;;;5031603;28;20588;-85
2022/07/30 08:55:01;;;;;;;6.45;4.13;;;;;;;;;;5032263;28;20207;-85
2022/07/30 08:57:30;;;;;;;8.57;4.45;;;;;;;;;;5031777;28;20242;-86
2022/07/30 08:59:57;;;;;;;8.57;4.57;;;;;;;;;;5037068;28;20195;-85
2022/07/30 09:02:24;;;;;;;6.32;4.28;;;;;;;;;;5036551;28;20235;-86
2022/07/30 09:04:51;;;;;;;4.20;3.80;;;;;;;;;;5033325;28;20215;-85
2022/07/30 09:07:18;;;;;;;6.47;4.85;;;;;;;;;;5032873;28;20257;-85
2022/07/30 09:09:45;;;;;;;7.40;4.57;;;;;;;;;;5048927;28;20209;-85
2022/07/30 09:12:30;;;;;;;4.85;3.92;;;;;;;;;;5052644;28;20560;-85
2022/07/30 09:15:03;;;;;;;6.57;3.90;;;;;;;;;;5039374;28;20209;-85
2022/07/30 09:17:43;;;;;;;5.13;4.10;;;;;;;;;;5057943;28;20237;-84
2022/07/30 09:20:10;;;;;;;5.78;3.88;;;;;;;;;;5054187;28;20217;-81
2022/07/30 09:22:45;;;;;;;5.15;4.10;;;;;;;;;;5050694;28;20272;-80
2022/07/30 09:25:12;;;;;;;6.22;3.50;;;;;;;;;;5057339;28;20225;-79
2022/07/30 09:27:46;;;;;;;4.68;3.38;;;;;;;;;;5064387;28;20238;-80
2022/07/30 09:30:15;;;;;;;3.90;3.50;;;;;;;;;;5063816;28;20213;-78
2022/07/30 09:32:48;;;;;;;4.38;3.70;;;;;;;;;;5057837;28;20675;-80
2022/07/30 09:35:16;;;;;;;6.82;3.40;;;;;;;;;;5054700;28;20202;-81
2022/07/30 09:37:44;;;;;;;5.68;3.75;;;;;;;;;;5052238;28;20256;-82
2022/07/30 09:40:12;;;;;;;5.18;3.60;;;;;;;;;;5052757;28;20262;-81
2022/07/30 09:42:39;;;;;;;4.93;3.72;;;;;;;;;;5052178;28;20244;-83
2022/07/30 09:45:06;;;;;;;4.43;3.80;;;;;;;;;;5053405;28;20206;-81
2022/07/30 09:47:36;;;;;;;6.15;4.13;;;;;;;;;;5051275;28;20238;-82
2022/07/30 09:50:04;;;;;;;4.05;3.35;;;;;;;;;;5052097;28;20614;-82
2022/07/30 09:52:31;;;;;;;4.70;4.20;;;;;;;;;;5054057;28;20660;-85
2022/07/30 09:54:59;;;;;;;6.00;3.50;;;;;;;;;;5053816;28;20210;-82
2022/07/30 09:57:26;;;;;;;5.93;4.30;;;;;;;;;;5055890;28;20233;-85
2022/07/30 09:59:53;;;;;;;4.28;2.70;;;;;;;;;;5055786;28;20214;-84
2022/07/30 10:02:20;;;;;;;3.92;2.78;;;;;;;;;;5055297;28;20644;-83
2022/07/30 10:04:48;;;;;;;5.63;3.53;;;;;;;;;;5057537;28;20214;-84
2022/07/30 10:07:19;;;;;;;3.95;2.80;;;;;;;;;;5056789;28;20245;-85
2022/07/30 10:09:48;;;;;;;3.95;2.40;;;;;;;;;;5055731;28;20693;-83
2022/07/30 10:12:15;;;;;;;3.90;2.72;;;;;;;;;;5054812;28;20241;-82
2022/07/30 10:14:43;;;;;;;5.63;2.40;;;;;;;;;;5055688;28;20259;-81
2022/07/30 10:17:11;;;;;;;3.38;2.53;;;;;;;;;;5054200;28;20230;-83
2022/07/30 10:19:38;;;;;;;4.18;2.30;;;;;;;;;;5055056;28;20206;-82
2022/07/30 10:22:07;;;;;;;3.65;2.00;;;;;;;;;;5057008;28;20222;-82
2022/07/30 10:24:35;;;;;;;2.75;2.17;;;;;;;;;;5039275;28;20206;-82
2022/07/30 10:27:03;;;;;;;7.07;2.92;;;;;;;;;;5054552;28;20226;-82
2022/07/30 10:29:30;;;;;;;1.67;1.58;;;;;;;;;;5056414;28;20263;-81
2022/07/30 10:31:57;;;;;;;1.73;1.30;;;;;;;;;;5054692;28;20202;-84
2022/07/30 10:34:24;;;;;;;2.00;1.60;;;;;;;;;;5055536;28;20206;-82
2022/07/30 10:36:53;;;;;;;1.48;1.35;;;;;;;;;;5054895;28;20233;-82
2022/07/30 10:39:25;;;;;;;1.48;1.38;;;;;;;;;;5055634;28;20222;-83
2022/07/30 10:42:01;;;;;;;4.10;2.20;;;;;;;;;;5054975;28;20832;-83
2022/07/30 10:44:52;;;;;;;2.88;1.90;;;;;;;;;;5054550;28;20578;-83
2022/07/30 10:47:19;;;;;;;2.40;1.60;;;;;;;;;;5029778;28;20238;-83
2022/07/30 10:50:01;;;;;;;2.35;1.77;;;;;;;;;;5055527;28;20205;-82
2022/07/30 10:52:43;;;;;;;3.17;1.65;;;;;;;;;;5053910;28;20242;-80
2022/07/30 10:55:14;;;;;;;2.75;1.70;;;;;;;;;;5053610;28;20205;-81
2022/07/30 10:57:56;;;;;;;2.38;1.70;;;;;;;;;;5055870;28;20261;-80
2022/07/30 11:00:24;;;;;;;3.00;2.03;;;;;;;;;;5055764;28;20209;-81
2022/07/30 11:03:09;;;;;;;3.45;2.00;;;;;;;;;;5056122;28;20261;-79
2022/07/30 11:05:36;;;;;;;1.90;1.80;;;;;;;;;;5058387;28;20217;-80
2022/07/30 11:08:18;;;;;;;2.38;1.48;;;;;;;;;;5053613;28;20246;-80
2022/07/30 11:10:46;;;;;;;1.60;1.50;;;;;;;;;;5035923;28;20207;-81
2022/07/30 11:13:14;;;;;;;1.95;1.77;;;;;;;;;;5036613;28;20725;-81
2022/07/30 11:15:54;;;;;;;3.85;1.35;;;;;;;;;;5057970;28;20213;-81
2022/07/30 11:18:21;;;;;;;2.22;1.75;;;;;;;;;;5054266;28;20237;-81
2022/07/30 11:21:13;;;;;;;3.17;1.42;;;;;;;;;;5057170;28;20210;-79
2022/07/30 11:23:40;;;;;;;2.95;1.70;;;;;;;;;;5055232;28;20283;-80
2022/07/30 11:26:09;;;;;;;2.03;1.80;;;;;;;;;;5050947;28;20265;-81
2022/07/30 11:28:40;;;;;;;2.25;1.42;;;;;;;;;;5044713;28;20253;-80
2022/07/30 11:31:30;;;;;;;2.70;1.60;;;;;;;;;;5046222;28;20210;-81
2022/07/30 11:34:27;;;;;;;2.33;1.80;;;;;;;;;;5055892;28;20715;-82
2022/07/30 11:37:04;;;;;;;4.15;1.52;;;;;;;;;;4936588;29;20244;-80
2022/07/30 11:39:46;;;;;;;3.13;0.90;;;;;;;;;;5029550;28;20290;-80
2022/07/30 11:42:26;;;;;;;1.42;1.33;;;;;;;;;;5041546;28;20234;-82
2022/07/30 11:44:53;;;;;;;2.15;1.40;;;;;;;;;;5035302;28;20239;-82
2022/07/30 11:47:21;;;;;;;1.60;1.40;;;;;;;;;;5051018;28;20244;-82
2022/07/30 11:49:48;;;;;;;1.85;1.23;;;;;;;;;;5053818;28;20208;-83
2022/07/30 11:52:23;;;;;;;1.42;1.33;;;;;;;;;;5053341;28;20225;-80
2022/07/30 11:54:53;;;;;;;1.83;1.33;;;;;;;;;;5053976;28;20201;-81
2022/07/30 11:57:20;;;;;;;1.42;1.25;;;;;;;;;;5045449;28;20618;-80
2022/07/30 11:59:57;;;;;;;1.30;1.20;;;;;;;;;;5052646;28;20213;-81
2022/07/30 12:02:27;;;;;;;1.30;1.10;;;;;;;;;;5056182;28;20243;-80
2022/07/30 12:04:54;;;;;;;1.67;1.02;;;;;;;;;;5056203;28;20212;-81
2022/07/30 12:07:22;;;;;;;2.90;1.20;;;;;;;;;;5055518;28;20245;-81
2022/07/30 12:09:50;;;;;;;1.27;1.00;;;;;;;;;;5057090;28;20202;-81
2022/07/30 12:12:23;;;;;;;1.58;1.30;;;;;;;;;;5050870;28;20233;-79
2022/07/30 12:14:50;;;;;;;1.15;1.05;;;;;;;;;;5060653;28;20285;-85
2022/07/30 12:17:19;;;;;;;0.98;0.98;;;;;;;;;;5051589;28;20255;-81
2022/07/30 12:19:50;;;;;;;2.67;1.50;;;;;;;;;;5053197;28;20677;-82
2022/07/30 12:22:17;;;;;;;1.58;1.25;;;;;;;;;;5053159;28;20320;-82
2022/07/30 12:24:44;;;;;;;1.67;1.23;;;;;;;;;;5053409;28;20208;-83
2022/07/30 12:27:11;;;;;;;2.45;1.20;;;;;;;;;;5052228;28;20279;-80
2022/07/30 12:29:38;;;;;;;3.58;1.50;;;;;;;;;;5053352;28;20205;-83
2022/07/30 12:32:06;;;;;;;1.30;1.20;;;;;;;;;;5052711;28;20240;-80
2022/07/30 12:34:34;;;;;;;1.48;1.38;;;;;;;;;;5046666;28;20205;-81
2022/07/30 12:37:08;;;;;;;1.20;1.10;;;;;;;;;;5052556;28;20236;-82
2022/07/30 12:39:35;;;;;;;1.15;0.90;;;;;;;;;;5045887;28;20605;-81
2022/07/30 12:42:03;;;;;;;1.92;1.30;;;;;;;;;;5048475;28;20205;-81
2022/07/30 12:44:37;;;;;;;1.27;1.17;;;;;;;;;;5051269;28;20225;-81
2022/07/30 12:47:05;;;;;;;1.00;0.90;;;;;;;;;;5033127;28;20229;-80
2022/07/30 12:49:32;;;;;;;1.50;1.40;;;;;;;;;;5034442;28;20210;-80
2022/07/30 12:52:01;;;;;;;1.40;1.30;;;;;;;;;;5041132;28;20263;-81
2022/07/30 12:54:28;;;;;;;1.75;1.23;;;;;;;;;;5047656;28;20204;-80
2022/07/30 12:56:57;;;;;;;1.42;1.10;;;;;;;;;;5049870;28;20261;-80
2022/07/30 12:59:24;;;;;;;1.63;1.10;;;;;;;;;;5056172;28;20236;-86
2022/07/30 13:01:52;;;;;;;1.02;1.02;;;;;;;;;;5052443;28;20206;-85
2022/07/30 13:04:19;;;;;;;1.35;1.23;;;;;;;;;;5052216;28;20618;-86
2022/07/30 13:07:01;;;;;;;1.90;1.13;;;;;;;;;;5052617;28;20234;-84
2022/07/30 13:09:30;;;;;;;1.20;1.10;;;;;;;;;;5052215;28;20728;-84
2022/07/30 13:11:57;;;;;;;0.95;0.95;;;;;;;;;;5050238;28;20255;-84
2022/07/30 13:14:24;;;;;;;1.55;0.85;;;;;;;;;;5052208;28;20578;-85
2022/07/30 13:16:51;;;;;;;0.80;0.80;;;;;;;;;;5052272;28;20226;-84
2022/07/30 13:19:18;;;;;;;1.65;1.23;;;;;;;;;;5051841;28;20230;-85
2022/07/30 13:21:47;;;;;;;3.97;1.48;;;;;;;;;;5052107;28;20210;-86
2022/07/30 13:24:14;;;;;;;1.30;1.17;;;;;;;;;;5051599;28;20237;-85
2022/07/30 13:26:42;;;;;;;1.88;1.30;;;;;;;;;;5052270;28;20236;-87
2022/07/30 13:29:12;;;;;;;2.10;1.38;;;;;;;;;;5055488;28;20237;-85
2022/07/30 13:31:39;;;;;;;1.58;1.40;;;;;;;;;;5055041;28;20247;-87
2022/07/30 13:34:07;;;;;;;1.30;1.20;;;;;;;;;;5055479;28;20230;-87
2022/07/30 13:36:34;;;;;;;1.83;1.30;;;;;;;;;;5052575;28;20226;-86
2022/07/30 13:39:01;;;;;;;2.53;1.10;;;;;;;;;;5055899;28;20768;-84
2022/07/30 13:41:29;;;;;;;2.03;1.40;;;;;;;;;;5053420;28;20689;-82
2022/07/30 13:43:57;;;;;;;1.45;1.35;;;;;;;;;;5051598;28;20276;-84
2022/07/30 13:46:24;;;;;;;1.35;1.20;;;;;;;;;;5053562;28;20202;-83
2022/07/30 13:48:51;;;;;;;1.30;1.25;;;;;;;;;;5052072;28;20229;-80
2022/07/30 13:51:18;;;;;;;4.65;2.03;;;;;;;;;;5053770;28;20210;-83
2022/07/30 13:53:45;;;;;;;1.67;1.42;;;;;;;;;;5052345;28;20898;-87
2022/07/30 13:56:13;;;;;;;1.20;1.20;;;;;;;;;;5052239;28;20573;-81
2022/07/30 13:58:41;;;;;;;2.47;1.70;;;;;;;;;;5051504;28;20234;-83
2022/07/30 14:01:09;;;;;;;2.38;1.40;;;;;;;;;;5051423;28;20214;-85
2022/07/30 14:03:36;;;;;;;11.43;4.07;;;;;;;;;;5051914;28;20237;-81
2022/07/30 14:06:04;;;;;;;1.77;1.40;;;;;;;;;;5053196;28;20213;-82
2022/07/30 14:08:32;;;;;;;4.63;1.58;;;;;;;;;;5051545;28;20237;-84
2022/07/30 14:10:59;;;;;;;1.60;1.50;;;;;;;;;;5051294;28;20210;-81
2022/07/30 14:13:26;;;;;;;1.73;1.40;;;;;;;;;;5051677;28;20237;-83
2022/07/30 14:15:53;;;;;;;1.73;1.63;;;;;;;;;;5052565;28;20202;-83
2022/07/30 14:18:21;;;;;;;2.20;1.33;;;;;;;;;;5051873;28;20241;-82
2022/07/30 14:20:51;;;;;;;3.40;1.80;;;;;;;;;;5070579;28;20202;-78
2022/07/30 14:23:18;;;;;;;3.03;1.35;;;;;;;;;;5072060;28;20210;-82
2022/07/30 14:25:45;;;;;;;1.40;1.30;;;;;;;;;;5069161;28;20240;-80
2022/07/30 14:28:12;;;;;;;1.15;1.08;;;;;;;;;;5065188;28;20228;-82
2022/07/30 14:30:39;;;;;;;1.40;1.30;;;;;;;;;;5065816;28;20268;-82
2022/07/30 14:33:07;;;;;;;1.98;1.70;;;;;;;;;;5066374;28;20242;-81
2022/07/30 14:35:35;;;;;;;1.63;1.42;;;;;;;;;;5070326;28;20218;-83
2022/07/30 14:38:03;;;;;;;1.83;1.70;;;;;;;;;;5065104;28;20240;-78
2022/07/30 14:40:30;;;;;;;1.60;1.10;;;;;;;;;;5060849;28;20233;-82
2022/07/30 14:42:57;;;;;;;1.42;1.33;;;;;;;;;;5055045;28;20229;-82
2022/07/30 14:45:24;;;;;;;1.63;1.45;;;;;;;;;;5055606;28;20201;-82
2022/07/30 14:47:51;;;;;;;1.75;1.65;;;;;;;;;;5055043;28;20234;-82
2022/07/30 14:50:18;;;;;;;1.33;1.23;;;;;;;;;;5055185;28;20210;-81